sensor_id;sensor_type;location;lat;lon;timestamp;P1;durP1;ratioP1;P2;durP2;ratioP2
23432;SDS011;41331;45.412;10.992;2023-05-14T00:01:59;4.03;;;1.42;;
23432;SDS011;41331;45.412;10.992;2023-05-14T00:04:27;3.53;;;1.52;;
23432;SDS011;41331;45.412;10.992;2023-05-14T00:06:54;3.60;;;1.50;;
23432;SDS011;41331;45.412;10.992;2023-05-14T00:09:22;3.25;;;1.60;;
23432;SDS011;41331;45.412;10.992;2023-05-14T00:11:50;4.30;;;1.45;;
23432;SDS011;41331;45.412;10.992;2023-05-14T00:14:18;3.38;;;1.45;;
23432;SDS011;41331;45.412;10.992;2023-05-14T00:16:45;2.78;;;1.38;;
23432;SDS011;41331;45.412;10.992;2023-05-14T00:19:12;5.07;;;1.60;;
23432;SDS011;41331;45.412;10.992;2023-05-14T00:21:40;6.65;;;1.73;;
23432;SDS011;41331;45.412;10.992;2023-05-14T00:24:07;4.10;;;1.50;;
23432;SDS011;41331;45.412;10.992;2023-05-14T00:26:35;4.03;;;2.10;;
23432;SDS011;41331;45.412;10.992;2023-05-14T00:29:02;3.47;;;1.50;;
23432;SDS011;41331;45.412;10.992;2023-05-14T00:31:30;4.82;;;1.60;;
23432;SDS011;41331;45.412;10.992;2023-05-14T00:33:57;3.95;;;1.80;;
23432;SDS011;41331;45.412;10.992;2023-05-14T00:36:25;4.00;;;1.90;;
23432;SDS011;41331;45.412;10.992;2023-05-14T00:38:52;2.90;;;1.88;;
23432;SDS011;41331;45.412;10.992;2023-05-14T00:41:21;3.63;;;1.65;;
23432;SDS011;41331;45.412;10.992;2023-05-14T00:43:49;4.47;;;1.50;;
23432;SDS011;41331;45.412;10.992;2023-05-14T00:46:16;3.05;;;1.88;;
23432;SDS011;41331;45.412;10.992;2023-05-14T00:48:44;3.88;;;2.00;;
23432;SDS011;41331;45.412;10.992;2023-05-14T00:51:12;3.30;;;1.70;;
23432;SDS011;41331;45.412;10.992;2023-05-14T00:53:39;2.92;;;1.48;;
23432;SDS011;41331;45.412;10.992;2023-05-14T00:56:07;3.72;;;2.05;;
23432;SDS011;41331;45.412;10.992;2023-05-14T00:58:35;4.68;;;1.77;;
23432;SDS011;41331;45.412;10.992;2023-05-14T01:01:03;4.00;;;1.30;;
23432;SDS011;41331;45.412;10.992;2023-05-14T01:03:31;2.55;;;1.50;;
23432;SDS011;41331;45.412;10.992;2023-05-14T01:08:52;2.25;;;1.13;;
23432;SDS011;41331;45.412;10.992;2023-05-14T01:17:17;3.08;;;1.00;;
23432;SDS011;41331;45.412;10.992;2023-05-14T01:19:46;4.90;;;1.30;;
23432;SDS011;41331;45.412;10.992;2023-05-14T01:22:14;3.22;;;1.20;;
23432;SDS011;41331;45.412;10.992;2023-05-14T01:24:42;2.75;;;1.10;;
23432;SDS011;41331;45.412;10.992;2023-05-14T01:30:04;1.90;;;1.05;;
23432;SDS011;41331;45.412;10.992;2023-05-14T01:32:39;7.50;;;1.30;;
23432;SDS011;41331;45.412;10.992;2023-05-14T01:35:07;2.50;;;1.30;;
23432;SDS011;41331;45.412;10.992;2023-05-14T01:37:36;2.58;;;1.15;;
23432;SDS011;41331;45.412;10.992;2023-05-14T01:40:05;4.40;;;1.30;;
23432;SDS011;41331;45.412;10.992;2023-05-14T01:42:36;2.20;;;1.15;;
23432;SDS011;41331;45.412;10.992;2023-05-14T01:45:05;2.65;;;1.20;;
23432;SDS011;41331;45.412;10.992;2023-05-14T01:47:32;3.03;;;1.27;;
23432;SDS011;41331;45.412;10.992;2023-05-14T01:50:00;5.15;;;1.55;;
23432;SDS011;41331;45.412;10.992;2023-05-14T01:52:27;4.32;;;1.50;;
23432;SDS011;41331;45.412;10.992;2023-05-14T01:54:55;2.20;;;1.10;;
23432;SDS011;41331;45.412;10.992;2023-05-14T01:57:24;4.50;;;1.38;;
23432;SDS011;41331;45.412;10.992;2023-05-14T01:59:53;2.15;;;1.20;;
23432;SDS011;41331;45.412;10.992;2023-05-14T02:02:21;3.10;;;1.40;;
23432;SDS011;41331;45.412;10.992;2023-05-14T02:04:49;2.58;;;1.20;;
23432;SDS011;41331;45.412;10.992;2023-05-14T02:07:18;3.42;;;1.20;;
23432;SDS011;41331;45.412;10.992;2023-05-14T02:09:45;3.15;;;1.33;;
23432;SDS011;41331;45.412;10.992;2023-05-14T02:12:13;3.45;;;1.23;;
23432;SDS011;41331;45.412;10.992;2023-05-14T02:14:44;2.85;;;1.40;;
23432;SDS011;41331;45.412;10.992;2023-05-14T02:17:11;6.15;;;1.42;;
23432;SDS011;41331;45.412;10.992;2023-05-14T02:19:44;2.50;;;1.20;;
23432;SDS011;41331;45.412;10.992;2023-05-14T02:22:12;4.22;;;1.33;;
23432;SDS011;41331;45.412;10.992;2023-05-14T02:24:40;6.03;;;1.20;;
23432;SDS011;41331;45.412;10.992;2023-05-14T02:27:07;2.30;;;1.15;;
23432;SDS011;41331;45.412;10.992;2023-05-14T02:29:34;2.38;;;1.30;;
23432;SDS011;41331;45.412;10.992;2023-05-14T02:32:02;3.67;;;1.33;;
23432;SDS011;41331;45.412;10.992;2023-05-14T02:34:30;2.40;;;1.20;;
23432;SDS011;41331;45.412;10.992;2023-05-14T02:36:59;2.72;;;1.40;;
23432;SDS011;41331;45.412;10.992;2023-05-14T02:39:27;4.63;;;1.50;;
23432;SDS011;41331;45.412;10.992;2023-05-14T02:41:54;2.65;;;1.25;;
23432;SDS011;41331;45.412;10.992;2023-05-14T02:44:22;4.50;;;1.35;;
23432;SDS011;41331;45.412;10.992;2023-05-14T02:46:49;3.33;;;1.15;;
23432;SDS011;41331;45.412;10.992;2023-05-14T02:49:17;3.50;;;1.10;;
23432;SDS011;41331;45.412;10.992;2023-05-14T02:51:45;3.30;;;1.00;;
23432;SDS011;41331;45.412;10.992;2023-05-14T02:54:12;3.38;;;1.30;;
23432;SDS011;41331;45.412;10.992;2023-05-14T02:56:42;3.25;;;1.00;;
23432;SDS011;41331;45.412;10.992;2023-05-14T02:59:10;3.92;;;0.98;;
23432;SDS011;41331;45.412;10.992;2023-05-14T03:01:38;2.95;;;1.17;;
23432;SDS011;41331;45.412;10.992;2023-05-14T03:04:06;3.10;;;1.13;;
23432;SDS011;41331;45.412;10.992;2023-05-14T03:06:33;3.05;;;1.30;;
23432;SDS011;41331;45.412;10.992;2023-05-14T03:09:01;2.15;;;1.17;;
23432;SDS011;41331;45.412;10.992;2023-05-14T03:11:28;2.65;;;0.90;;
23432;SDS011;41331;45.412;10.992;2023-05-14T03:13:55;2.50;;;1.00;;
23432;SDS011;41331;45.412;10.992;2023-05-14T03:16:24;3.95;;;1.00;;
23432;SDS011;41331;45.412;10.992;2023-05-14T03:18:54;2.83;;;1.20;;
23432;SDS011;41331;45.412;10.992;2023-05-14T03:21:22;3.58;;;1.10;;
23432;SDS011;41331;45.412;10.992;2023-05-14T03:23:50;2.53;;;1.00;;
23432;SDS011;41331;45.412;10.992;2023-05-14T03:26:18;2.10;;;1.05;;
23432;SDS011;41331;45.412;10.992;2023-05-14T03:28:47;3.33;;;1.10;;
23432;SDS011;41331;45.412;10.992;2023-05-14T03:31:15;3.08;;;1.00;;
23432;SDS011;41331;45.412;10.992;2023-05-14T03:33:42;2.88;;;0.98;;
23432;SDS011;41331;45.412;10.992;2023-05-14T03:36:10;3.17;;;1.30;;
23432;SDS011;41331;45.412;10.992;2023-05-14T03:38:37;1.90;;;0.98;;
23432;SDS011;41331;45.412;10.992;2023-05-14T03:41:04;3.85;;;1.02;;
23432;SDS011;41331;45.412;10.992;2023-05-14T03:43:32;3.35;;;0.98;;
23432;SDS011;41331;45.412;10.992;2023-05-14T03:45:59;3.33;;;1.10;;
23432;SDS011;41331;45.412;10.992;2023-05-14T03:48:27;2.47;;;0.90;;
23432;SDS011;41331;45.412;10.992;2023-05-14T03:50:54;2.33;;;1.10;;
23432;SDS011;41331;45.412;10.992;2023-05-14T03:53:22;3.95;;;0.90;;
23432;SDS011;41331;45.412;10.992;2023-05-14T03:55:50;2.28;;;1.00;;
23432;SDS011;41331;45.412;10.992;2023-05-14T03:58:17;2.67;;;1.00;;
23432;SDS011;41331;45.412;10.992;2023-05-14T04:00:44;3.70;;;1.17;;
23432;SDS011;41331;45.412;10.992;2023-05-14T04:03:12;3.03;;;1.10;;
23432;SDS011;41331;45.412;10.992;2023-05-14T04:05:39;4.22;;;1.20;;
23432;SDS011;41331;45.412;10.992;2023-05-14T04:08:09;3.88;;;1.10;;
23432;SDS011;41331;45.412;10.992;2023-05-14T04:10:37;2.60;;;1.10;;
23432;SDS011;41331;45.412;10.992;2023-05-14T04:13:04;4.05;;;1.15;;
23432;SDS011;41331;45.412;10.992;2023-05-14T04:15:34;3.65;;;1.20;;
23432;SDS011;41331;45.412;10.992;2023-05-14T04:18:04;3.38;;;1.25;;
23432;SDS011;41331;45.412;10.992;2023-05-14T04:20:32;2.00;;;1.10;;
23432;SDS011;41331;45.412;10.992;2023-05-14T04:22:59;4.25;;;1.17;;
23432;SDS011;41331;45.412;10.992;2023-05-14T04:25:27;3.20;;;1.30;;
23432;SDS011;41331;45.412;10.992;2023-05-14T04:27:54;2.78;;;1.38;;
23432;SDS011;41331;45.412;10.992;2023-05-14T04:30:21;2.72;;;1.23;;
23432;SDS011;41331;45.412;10.992;2023-05-14T04:32:49;2.85;;;1.33;;
23432;SDS011;41331;45.412;10.992;2023-05-14T04:35:17;2.05;;;1.27;;
23432;SDS011;41331;45.412;10.992;2023-05-14T04:37:48;3.00;;;1.45;;
23432;SDS011;41331;45.412;10.992;2023-05-14T04:40:16;2.40;;;1.17;;
23432;SDS011;41331;45.412;10.992;2023-05-14T04:42:43;4.72;;;1.63;;
23432;SDS011;41331;45.412;10.992;2023-05-14T04:45:13;3.97;;;1.45;;
23432;SDS011;41331;45.412;10.992;2023-05-14T04:47:40;2.38;;;1.00;;
23432;SDS011;41331;45.412;10.992;2023-05-14T04:50:08;4.70;;;1.50;;
23432;SDS011;41331;45.412;10.992;2023-05-14T04:52:36;4.68;;;1.55;;
23432;SDS011;41331;45.412;10.992;2023-05-14T04:55:04;2.13;;;1.27;;
23432;SDS011;41331;45.412;10.992;2023-05-14T04:57:32;2.78;;;1.40;;
23432;SDS011;41331;45.412;10.992;2023-05-14T05:00:00;3.53;;;1.50;;
23432;SDS011;41331;45.412;10.992;2023-05-14T05:02:28;4.93;;;1.55;;
23432;SDS011;41331;45.412;10.992;2023-05-14T05:04:55;3.40;;;1.60;;
23432;SDS011;41331;45.412;10.992;2023-05-14T05:07:23;5.85;;;1.35;;
23432;SDS011;41331;45.412;10.992;2023-05-14T05:09:50;3.67;;;1.50;;
23432;SDS011;41331;45.412;10.992;2023-05-14T05:12:18;4.00;;;1.70;;
23432;SDS011;41331;45.412;10.992;2023-05-14T05:14:45;4.25;;;1.55;;
23432;SDS011;41331;45.412;10.992;2023-05-14T05:17:15;6.47;;;1.45;;
23432;SDS011;41331;45.412;10.992;2023-05-14T05:19:42;5.97;;;1.60;;
23432;SDS011;41331;45.412;10.992;2023-05-14T05:22:10;4.20;;;1.30;;
23432;SDS011;41331;45.412;10.992;2023-05-14T05:24:38;8.57;;;1.70;;
23432;SDS011;41331;45.412;10.992;2023-05-14T05:27:05;3.63;;;1.48;;
23432;SDS011;41331;45.412;10.992;2023-05-14T05:29:33;3.88;;;1.42;;
23432;SDS011;41331;45.412;10.992;2023-05-14T05:32:01;6.00;;;1.65;;
23432;SDS011;41331;45.412;10.992;2023-05-14T05:34:28;2.78;;;1.40;;
23432;SDS011;41331;45.412;10.992;2023-05-14T05:36:55;2.53;;;1.20;;
23432;SDS011;41331;45.412;10.992;2023-05-14T05:39:23;6.20;;;1.67;;
23432;SDS011;41331;45.412;10.992;2023-05-14T05:41:51;7.53;;;1.50;;
23432;SDS011;41331;45.412;10.992;2023-05-14T05:44:20;3.63;;;1.10;;
23432;SDS011;41331;45.412;10.992;2023-05-14T05:46:47;3.88;;;1.38;;
23432;SDS011;41331;45.412;10.992;2023-05-14T05:49:14;3.22;;;1.30;;
23432;SDS011;41331;45.412;10.992;2023-05-14T05:51:42;2.65;;;1.20;;
23432;SDS011;41331;45.412;10.992;2023-05-14T05:54:09;3.25;;;1.30;;
23432;SDS011;41331;45.412;10.992;2023-05-14T05:56:37;6.22;;;1.30;;
23432;SDS011;41331;45.412;10.992;2023-05-14T05:59:04;4.57;;;1.50;;
23432;SDS011;41331;45.412;10.992;2023-05-14T06:01:31;4.70;;;1.50;;
23432;SDS011;41331;45.412;10.992;2023-05-14T06:03:59;5.95;;;1.75;;
23432;SDS011;41331;45.412;10.992;2023-05-14T06:06:27;4.05;;;1.70;;
23432;SDS011;41331;45.412;10.992;2023-05-14T06:08:54;3.33;;;1.30;;
23432;SDS011;41331;45.412;10.992;2023-05-14T06:11:22;4.45;;;1.40;;
23432;SDS011;41331;45.412;10.992;2023-05-14T06:13:49;2.72;;;1.20;;
23432;SDS011;41331;45.412;10.992;2023-05-14T06:16:17;5.85;;;2.30;;
23432;SDS011;41331;45.412;10.992;2023-05-14T06:18:44;3.35;;;1.70;;
23432;SDS011;41331;45.412;10.992;2023-05-14T06:21:12;3.30;;;1.70;;
23432;SDS011;41331;45.412;10.992;2023-05-14T06:23:39;4.47;;;1.90;;
23432;SDS011;41331;45.412;10.992;2023-05-14T06:26:07;6.07;;;2.20;;
23432;SDS011;41331;45.412;10.992;2023-05-14T06:28:35;3.70;;;2.13;;
23432;SDS011;41331;45.412;10.992;2023-05-14T06:31:05;5.60;;;2.13;;
23432;SDS011;41331;45.412;10.992;2023-05-14T06:33:32;8.60;;;2.20;;
23432;SDS011;41331;45.412;10.992;2023-05-14T06:36:03;5.55;;;2.45;;
23432;SDS011;41331;45.412;10.992;2023-05-14T06:38:31;4.15;;;2.53;;
23432;SDS011;41331;45.412;10.992;2023-05-14T06:40:59;8.13;;;3.03;;
23432;SDS011;41331;45.412;10.992;2023-05-14T06:43:26;4.50;;;3.22;;
23432;SDS011;41331;45.412;10.992;2023-05-14T06:45:54;4.95;;;2.95;;
23432;SDS011;41331;45.412;10.992;2023-05-14T06:48:21;5.35;;;3.13;;
23432;SDS011;41331;45.412;10.992;2023-05-14T06:50:49;5.50;;;3.45;;
23432;SDS011;41331;45.412;10.992;2023-05-14T06:53:16;7.43;;;2.90;;
23432;SDS011;41331;45.412;10.992;2023-05-14T06:55:46;7.75;;;2.85;;
23432;SDS011;41331;45.412;10.992;2023-05-14T06:58:14;5.15;;;2.90;;
23432;SDS011;41331;45.412;10.992;2023-05-14T07:00:41;8.75;;;2.60;;
23432;SDS011;41331;45.412;10.992;2023-05-14T07:03:09;5.57;;;2.53;;
23432;SDS011;41331;45.412;10.992;2023-05-14T07:05:36;5.18;;;2.67;;
23432;SDS011;41331;45.412;10.992;2023-05-14T07:08:04;3.72;;;2.47;;
23432;SDS011;41331;45.412;10.992;2023-05-14T07:10:31;7.03;;;2.92;;
23432;SDS011;41331;45.412;10.992;2023-05-14T07:12:59;5.35;;;2.75;;
23432;SDS011;41331;45.412;10.992;2023-05-14T07:15:26;7.40;;;3.00;;
23432;SDS011;41331;45.412;10.992;2023-05-14T07:17:54;5.00;;;3.65;;
23432;SDS011;41331;45.412;10.992;2023-05-14T07:20:21;5.10;;;2.47;;
23432;SDS011;41331;45.412;10.992;2023-05-14T07:22:51;4.57;;;2.92;;
23432;SDS011;41331;45.412;10.992;2023-05-14T07:25:19;4.57;;;2.50;;
23432;SDS011;41331;45.412;10.992;2023-05-14T07:27:46;6.68;;;2.63;;
23432;SDS011;41331;45.412;10.992;2023-05-14T07:30:14;11.70;;;2.70;;
23432;SDS011;41331;45.412;10.992;2023-05-14T07:32:41;4.88;;;2.45;;
23432;SDS011;41331;45.412;10.992;2023-05-14T07:35:09;8.18;;;2.45;;
23432;SDS011;41331;45.412;10.992;2023-05-14T07:37:37;4.18;;;2.20;;
23432;SDS011;41331;45.412;10.992;2023-05-14T07:40:05;5.93;;;2.38;;
23432;SDS011;41331;45.412;10.992;2023-05-14T07:42:33;7.28;;;2.33;;
23432;SDS011;41331;45.412;10.992;2023-05-14T07:45:03;4.03;;;2.75;;
23432;SDS011;41331;45.412;10.992;2023-05-14T07:47:32;4.72;;;2.88;;
23432;SDS011;41331;45.412;10.992;2023-05-14T07:49:59;3.97;;;2.58;;
23432;SDS011;41331;45.412;10.992;2023-05-14T07:52:27;7.40;;;2.83;;
23432;SDS011;41331;45.412;10.992;2023-05-14T07:54:54;6.55;;;2.55;;
23432;SDS011;41331;45.412;10.992;2023-05-14T07:57:22;5.22;;;2.88;;
23432;SDS011;41331;45.412;10.992;2023-05-14T07:59:49;4.30;;;2.60;;
23432;SDS011;41331;45.412;10.992;2023-05-14T08:02:18;6.28;;;2.70;;
23432;SDS011;41331;45.412;10.992;2023-05-14T08:04:46;4.72;;;2.90;;
23432;SDS011;41331;45.412;10.992;2023-05-14T08:07:13;6.95;;;2.88;;
23432;SDS011;41331;45.412;10.992;2023-05-14T08:09:41;4.07;;;2.60;;
23432;SDS011;41331;45.412;10.992;2023-05-14T08:12:08;6.70;;;2.72;;
23432;SDS011;41331;45.412;10.992;2023-05-14T08:14:35;6.50;;;2.72;;
23432;SDS011;41331;45.412;10.992;2023-05-14T08:17:03;6.15;;;2.30;;
23432;SDS011;41331;45.412;10.992;2023-05-14T08:19:31;4.65;;;2.42;;
23432;SDS011;41331;45.412;10.992;2023-05-14T08:21:59;4.82;;;2.50;;
23432;SDS011;41331;45.412;10.992;2023-05-14T08:24:26;5.35;;;2.38;;
23432;SDS011;41331;45.412;10.992;2023-05-14T08:26:54;3.20;;;2.08;;
23432;SDS011;41331;45.412;10.992;2023-05-14T08:29:22;5.80;;;2.30;;
23432;SDS011;41331;45.412;10.992;2023-05-14T08:31:49;4.03;;;2.40;;
23432;SDS011;41331;45.412;10.992;2023-05-14T08:34:17;4.05;;;2.28;;
23432;SDS011;41331;45.412;10.992;2023-05-14T08:36:44;6.25;;;2.20;;
23432;SDS011;41331;45.412;10.992;2023-05-14T08:39:12;4.38;;;2.50;;
23432;SDS011;41331;45.412;10.992;2023-05-14T08:41:39;5.63;;;2.50;;
23432;SDS011;41331;45.412;10.992;2023-05-14T08:46:38;4.47;;;2.17;;
23432;SDS011;41331;45.412;10.992;2023-05-14T08:51:37;5.07;;;2.35;;
23432;SDS011;41331;45.412;10.992;2023-05-14T08:54:06;7.10;;;2.08;;
23432;SDS011;41331;45.412;10.992;2023-05-14T08:56:33;5.38;;;3.03;;
23432;SDS011;41331;45.412;10.992;2023-05-14T08:59:02;5.07;;;2.50;;
23432;SDS011;41331;45.412;10.992;2023-05-14T09:01:29;6.15;;;2.85;;
23432;SDS011;41331;45.412;10.992;2023-05-14T09:03:56;5.72;;;2.50;;
23432;SDS011;41331;45.412;10.992;2023-05-14T09:06:27;8.38;;;2.30;;
23432;SDS011;41331;45.412;10.992;2023-05-14T09:08:55;4.88;;;2.22;;
23432;SDS011;41331;45.412;10.992;2023-05-14T09:11:23;3.88;;;2.60;;
23432;SDS011;41331;45.412;10.992;2023-05-14T09:13:50;5.00;;;2.50;;
23432;SDS011;41331;45.412;10.992;2023-05-14T09:16:18;7.63;;;3.63;;
23432;SDS011;41331;45.412;10.992;2023-05-14T09:18:47;6.72;;;3.35;;
23432;SDS011;41331;45.412;10.992;2023-05-14T09:21:14;4.50;;;2.63;;
23432;SDS011;41331;45.412;10.992;2023-05-14T09:23:43;4.80;;;2.88;;
23432;SDS011;41331;45.412;10.992;2023-05-14T09:26:15;4.65;;;2.80;;
23432;SDS011;41331;45.412;10.992;2023-05-14T09:28:43;9.73;;;3.53;;
23432;SDS011;41331;45.412;10.992;2023-05-14T09:31:11;4.55;;;2.78;;
23432;SDS011;41331;45.412;10.992;2023-05-14T09:33:38;5.00;;;3.22;;
23432;SDS011;41331;45.412;10.992;2023-05-14T09:36:06;6.07;;;3.17;;
23432;SDS011;41331;45.412;10.992;2023-05-14T09:38:33;7.25;;;3.45;;
23432;SDS011;41331;45.412;10.992;2023-05-14T09:41:01;7.18;;;3.13;;
23432;SDS011;41331;45.412;10.992;2023-05-14T09:43:28;5.50;;;3.10;;
23432;SDS011;41331;45.412;10.992;2023-05-14T09:45:56;7.03;;;2.90;;
23432;SDS011;41331;45.412;10.992;2023-05-14T09:48:23;6.00;;;3.00;;
23432;SDS011;41331;45.412;10.992;2023-05-14T09:50:52;4.95;;;2.92;;
23432;SDS011;41331;45.412;10.992;2023-05-14T09:53:19;5.72;;;3.00;;
23432;SDS011;41331;45.412;10.992;2023-05-14T09:55:47;4.82;;;2.78;;
23432;SDS011;41331;45.412;10.992;2023-05-14T09:58:16;5.43;;;3.28;;
23432;SDS011;41331;45.412;10.992;2023-05-14T10:00:44;6.30;;;3.08;;
23432;SDS011;41331;45.412;10.992;2023-05-14T10:03:14;4.63;;;3.03;;
23432;SDS011;41331;45.412;10.992;2023-05-14T10:05:45;4.38;;;2.95;;
23432;SDS011;41331;45.412;10.992;2023-05-14T10:08:18;6.07;;;3.72;;
23432;SDS011;41331;45.412;10.992;2023-05-14T10:10:47;5.50;;;4.03;;
23432;SDS011;41331;45.412;10.992;2023-05-14T10:13:19;5.95;;;4.03;;
23432;SDS011;41331;45.412;10.992;2023-05-14T10:15:51;6.35;;;3.80;;
23432;SDS011;41331;45.412;10.992;2023-05-14T10:18:25;5.18;;;3.85;;
23432;SDS011;41331;45.412;10.992;2023-05-14T10:21:03;5.97;;;4.03;;
23432;SDS011;41331;45.412;10.992;2023-05-14T10:23:32;5.45;;;3.83;;
23432;SDS011;41331;45.412;10.992;2023-05-14T10:26:03;7.45;;;4.25;;
23432;SDS011;41331;45.412;10.992;2023-05-14T10:28:32;5.90;;;3.88;;
23432;SDS011;41331;45.412;10.992;2023-05-14T10:31:02;5.57;;;3.63;;
23432;SDS011;41331;45.412;10.992;2023-05-14T10:33:30;5.80;;;3.80;;
23432;SDS011;41331;45.412;10.992;2023-05-14T10:36:13;4.97;;;3.55;;
23432;SDS011;41331;45.412;10.992;2023-05-14T10:38:40;6.28;;;3.50;;
23432;SDS011;41331;45.412;10.992;2023-05-14T10:41:11;8.10;;;4.13;;
23432;SDS011;41331;45.412;10.992;2023-05-14T10:43:44;6.93;;;4.47;;
23432;SDS011;41331;45.412;10.992;2023-05-14T10:46:12;5.68;;;3.88;;
23432;SDS011;41331;45.412;10.992;2023-05-14T10:48:40;5.90;;;3.92;;
23432;SDS011;41331;45.412;10.992;2023-05-14T10:51:12;6.90;;;4.20;;
23432;SDS011;41331;45.412;10.992;2023-05-14T10:53:43;7.30;;;4.28;;
23432;SDS011;41331;45.412;10.992;2023-05-14T10:56:12;4.95;;;3.83;;
23432;SDS011;41331;45.412;10.992;2023-05-14T10:58:41;5.75;;;4.28;;
23432;SDS011;41331;45.412;10.992;2023-05-14T11:01:11;5.57;;;3.75;;
23432;SDS011;41331;45.412;10.992;2023-05-14T11:03:40;6.05;;;4.13;;
23432;SDS011;41331;45.412;10.992;2023-05-14T11:06:12;7.75;;;4.22;;
23432;SDS011;41331;45.412;10.992;2023-05-14T11:08:41;5.82;;;3.88;;
23432;SDS011;41331;45.412;10.992;2023-05-14T11:11:09;8.77;;;3.83;;
23432;SDS011;41331;45.412;10.992;2023-05-14T11:13:40;5.07;;;3.50;;
23432;SDS011;41331;45.412;10.992;2023-05-14T11:16:07;6.55;;;3.70;;
23432;SDS011;41331;45.412;10.992;2023-05-14T11:18:51;7.80;;;3.63;;
23432;SDS011;41331;45.412;10.992;2023-05-14T11:21:26;5.43;;;3.58;;
23432;SDS011;41331;45.412;10.992;2023-05-14T11:24:00;9.25;;;3.22;;
23432;SDS011;41331;45.412;10.992;2023-05-14T11:26:27;6.28;;;3.15;;
23432;SDS011;41331;45.412;10.992;2023-05-14T11:28:55;7.32;;;3.05;;
23432;SDS011;41331;45.412;10.992;2023-05-14T11:31:22;5.63;;;3.03;;
23432;SDS011;41331;45.412;10.992;2023-05-14T11:33:51;7.47;;;3.80;;
23432;SDS011;41331;45.412;10.992;2023-05-14T11:36:19;4.53;;;3.15;;
23432;SDS011;41331;45.412;10.992;2023-05-14T11:38:47;4.53;;;2.75;;
23432;SDS011;41331;45.412;10.992;2023-05-14T11:41:16;4.53;;;2.80;;
23432;SDS011;41331;45.412;10.992;2023-05-14T11:43:47;5.57;;;2.83;;
23432;SDS011;41331;45.412;10.992;2023-05-14T11:46:15;6.55;;;3.47;;
23432;SDS011;41331;45.412;10.992;2023-05-14T11:48:44;5.80;;;3.13;;
23432;SDS011;41331;45.412;10.992;2023-05-14T11:51:12;4.68;;;3.05;;
23432;SDS011;41331;45.412;10.992;2023-05-14T11:53:40;4.90;;;3.03;;
23432;SDS011;41331;45.412;10.992;2023-05-14T11:56:08;5.35;;;3.25;;
23432;SDS011;41331;45.412;10.992;2023-05-14T11:58:36;5.68;;;2.65;;
23432;SDS011;41331;45.412;10.992;2023-05-14T12:01:03;5.35;;;2.90;;
23432;SDS011;41331;45.412;10.992;2023-05-14T12:03:31;6.30;;;2.70;;
23432;SDS011;41331;45.412;10.992;2023-05-14T12:05:59;5.65;;;2.33;;
23432;SDS011;41331;45.412;10.992;2023-05-14T12:08:28;4.13;;;2.15;;
23432;SDS011;41331;45.412;10.992;2023-05-14T12:10:58;5.47;;;2.30;;
23432;SDS011;41331;45.412;10.992;2023-05-14T12:13:29;6.78;;;2.75;;
23432;SDS011;41331;45.412;10.992;2023-05-14T12:15:58;5.73;;;2.57;;
23432;SDS011;41331;45.412;10.992;2023-05-14T12:18:29;4.35;;;2.00;;
23432;SDS011;41331;45.412;10.992;2023-05-14T12:21:01;4.85;;;2.10;;
23432;SDS011;41331;45.412;10.992;2023-05-14T12:26:04;5.03;;;2.15;;
23432;SDS011;41331;45.412;10.992;2023-05-14T12:28:33;3.85;;;1.45;;
23432;SDS011;41331;45.412;10.992;2023-05-14T12:31:04;4.97;;;1.92;;
23432;SDS011;41331;45.412;10.992;2023-05-14T12:33:32;4.97;;;1.67;;
23432;SDS011;41331;45.412;10.992;2023-05-14T12:35:59;4.55;;;1.50;;
23432;SDS011;41331;45.412;10.992;2023-05-14T12:38:46;3.55;;;1.63;;
23432;SDS011;41331;45.412;10.992;2023-05-14T12:41:13;2.53;;;1.05;;
23432;SDS011;41331;45.412;10.992;2023-05-14T12:43:44;3.60;;;1.40;;
23432;SDS011;41331;45.412;10.992;2023-05-14T12:46:14;3.47;;;1.45;;
23432;SDS011;41331;45.412;10.992;2023-05-14T12:48:43;3.00;;;2.00;;
23432;SDS011;41331;45.412;10.992;2023-05-14T12:51:10;3.85;;;2.35;;
23432;SDS011;41331;45.412;10.992;2023-05-14T12:53:38;7.72;;;2.95;;
23432;SDS011;41331;45.412;10.992;2023-05-14T12:56:06;6.60;;;2.40;;
23432;SDS011;41331;45.412;10.992;2023-05-14T12:58:33;3.30;;;1.70;;
23432;SDS011;41331;45.412;10.992;2023-05-14T13:01:01;3.05;;;1.70;;
23432;SDS011;41331;45.412;10.992;2023-05-14T13:03:31;4.15;;;2.50;;
23432;SDS011;41331;45.412;10.992;2023-05-14T13:05:58;4.90;;;1.58;;
23432;SDS011;41331;45.412;10.992;2023-05-14T13:08:26;3.25;;;1.38;;
23432;SDS011;41331;45.412;10.992;2023-05-14T13:10:53;7.95;;;2.10;;
23432;SDS011;41331;45.412;10.992;2023-05-14T13:13:21;3.83;;;1.20;;
23432;SDS011;41331;45.412;10.992;2023-05-14T13:15:50;10.15;;;5.00;;
23432;SDS011;41331;45.412;10.992;2023-05-14T13:18:18;3.55;;;1.20;;
23432;SDS011;41331;45.412;10.992;2023-05-14T13:20:46;4.47;;;1.35;;
23432;SDS011;41331;45.412;10.992;2023-05-14T13:23:13;3.40;;;1.92;;
23432;SDS011;41331;45.412;10.992;2023-05-14T13:25:41;2.78;;;1.10;;
23432;SDS011;41331;45.412;10.992;2023-05-14T13:28:09;2.13;;;1.10;;
23432;SDS011;41331;45.412;10.992;2023-05-14T13:30:36;1.33;;;0.80;;
23432;SDS011;41331;45.412;10.992;2023-05-14T13:33:06;1.75;;;1.00;;
23432;SDS011;41331;45.412;10.992;2023-05-14T13:35:33;4.70;;;0.90;;
23432;SDS011;41331;45.412;10.992;2023-05-14T13:38:00;1.27;;;0.60;;
23432;SDS011;41331;45.412;10.992;2023-05-14T13:40:28;1.83;;;0.90;;
23432;SDS011;41331;45.412;10.992;2023-05-14T13:43:14;0.93;;;0.50;;
23432;SDS011;41331;45.412;10.992;2023-05-14T13:45:43;1.15;;;0.60;;
23432;SDS011;41331;45.412;10.992;2023-05-14T13:48:10;5.45;;;0.80;;
23432;SDS011;41331;45.412;10.992;2023-05-14T13:50:37;2.38;;;0.80;;
23432;SDS011;41331;45.412;10.992;2023-05-14T13:53:08;1.75;;;0.68;;
23432;SDS011;41331;45.412;10.992;2023-05-14T13:55:36;1.75;;;0.75;;
23432;SDS011;41331;45.412;10.992;2023-05-14T13:58:03;2.35;;;0.90;;
23432;SDS011;41331;45.412;10.992;2023-05-14T14:00:30;2.03;;;0.70;;
23432;SDS011;41331;45.412;10.992;2023-05-14T14:02:58;2.15;;;0.85;;
23432;SDS011;41331;45.412;10.992;2023-05-14T14:05:25;2.47;;;0.75;;
23432;SDS011;41331;45.412;10.992;2023-05-14T14:07:54;1.83;;;0.65;;
23432;SDS011;41331;45.412;10.992;2023-05-14T14:10:39;1.80;;;0.73;;
23432;SDS011;41331;45.412;10.992;2023-05-14T14:13:08;1.85;;;0.70;;
23432;SDS011;41331;45.412;10.992;2023-05-14T14:15:36;1.20;;;0.50;;
23432;SDS011;41331;45.412;10.992;2023-05-14T14:18:03;1.13;;;0.57;;
23432;SDS011;41331;45.412;10.992;2023-05-14T14:20:31;1.02;;;0.60;;
23432;SDS011;41331;45.412;10.992;2023-05-14T14:22:59;1.58;;;0.50;;
23432;SDS011;41331;45.412;10.992;2023-05-14T14:25:28;1.60;;;0.68;;
23432;SDS011;41331;45.412;10.992;2023-05-14T14:27:56;1.83;;;0.80;;
23432;SDS011;41331;45.412;10.992;2023-05-14T14:30:23;2.05;;;0.63;;
23432;SDS011;41331;45.412;10.992;2023-05-14T14:32:51;1.40;;;0.60;;
23432;SDS011;41331;45.412;10.992;2023-05-14T14:35:18;3.05;;;0.73;;
23432;SDS011;41331;45.412;10.992;2023-05-14T14:37:46;1.65;;;0.60;;
23432;SDS011;41331;45.412;10.992;2023-05-14T14:40:19;1.38;;;0.68;;
23432;SDS011;41331;45.412;10.992;2023-05-14T14:42:46;2.22;;;0.80;;
23432;SDS011;41331;45.412;10.992;2023-05-14T14:45:13;2.47;;;0.75;;
23432;SDS011;41331;45.412;10.992;2023-05-14T14:47:44;3.40;;;1.13;;
23432;SDS011;41331;45.412;10.992;2023-05-14T14:50:12;2.42;;;1.10;;
23432;SDS011;41331;45.412;10.992;2023-05-14T14:52:40;3.20;;;1.10;;
23432;SDS011;41331;45.412;10.992;2023-05-14T14:57:39;2.35;;;0.90;;
23432;SDS011;41331;45.412;10.992;2023-05-14T15:00:06;3.40;;;1.30;;
23432;SDS011;41331;45.412;10.992;2023-05-14T15:02:36;2.55;;;1.23;;